Time;durP1;ratioP1;P1;durP2;ratioP2;P2;SDS_P1;SDS_P2;PMS_P1;PMS_P2;Temp;Humidity;BMP_temperature;BMP_pressure;BME280_temperature;BME280_humidity;BME280_pressure;Samples;Min_cycle;Max_cycle;Signal;HPM_P1;HPM_P2
2021/05/23 00:00:46;;;;;;;4.53;1.00;;;13.50;99.90;;;12.98;88.39;100356.25;4966345;28;20128;-47
2021/05/23 00:03:16;;;;;;;3.63;1.05;;;13.50;99.90;;;12.91;89.58;100343.81;4960848;28;20081;-46
2021/05/23 00:05:44;;;;;;;3.45;1.00;;;13.50;99.90;;;12.92;90.03;100352.47;4967903;28;20410;-52
2021/05/23 00:08:14;;;;;;;3.75;1.02;;;13.50;99.90;;;12.91;90.41;100359.50;4968137;28;20039;-53
2021/05/23 00:10:47;;;;;;;6.55;1.20;;;13.50;99.90;;;12.87;90.16;100355.56;4968787;28;20490;-52
2021/05/23 00:13:17;;;;;;;3.28;0.85;;;13.50;99.90;;;12.85;90.10;100346.25;4971731;28;20039;-52
2021/05/23 00:16:04;;;;;;;3.33;1.00;;;13.40;99.90;;;12.81;90.63;100347.56;4971524;28;20222;-49
2021/05/23 00:18:33;;;;;;;5.93;0.90;;;13.40;99.90;;;12.73;90.86;100340.53;4971634;28;20034;-51
2021/05/23 00:21:00;;;;;;;5.28;1.13;;;13.30;99.90;;;12.63;91.63;100343.31;4971974;28;20046;-47
2021/05/23 00:23:26;;;;;;;3.90;1.20;;;13.30;99.90;;;12.62;91.29;100359.13;4964277;28;20472;-48
2021/05/23 00:25:53;;;;;;;4.85;1.25;;;13.20;99.90;;;12.60;91.79;100353.25;4962825;28;20055;-48
2021/05/23 00:28:20;;;;;;;5.28;1.35;;;13.10;99.90;;;12.60;91.60;100348.03;4971422;28;20042;-46
2021/05/23 00:30:46;;;;;;;6.72;1.65;;;13.10;99.90;;;12.59;91.57;100352.44;4971251;28;20118;-46
2021/05/23 00:33:13;;;;;;;5.75;1.40;;;13.10;99.90;;;12.59;91.80;100343.78;4971561;28;20035;-46
2021/05/23 00:35:40;;;;;;;5.80;1.25;;;13.20;99.90;;;12.62;91.27;100353.91;4953741;28;20513;-50
2021/05/23 00:38:07;;;;;;;5.30;0.50;;;13.10;99.90;;;12.59;90.98;100341.97;4971330;28;20027;-46
2021/05/23 00:40:36;;;;;;;4.22;0.73;;;13.10;99.90;;;12.53;91.11;100337.41;4945636;28;20062;-46
2021/05/23 00:43:12;;;;;;;2.08;0.50;;;13.10;99.90;;;12.54;91.16;100330.38;4971253;28;20108;-46
2021/05/23 00:45:38;;;;;;;1.42;0.60;;;13.10;99.90;;;12.47;91.16;100330.19;4951342;28;20039;-46
2021/05/23 00:48:05;;;;;;;2.45;0.60;;;13.00;99.90;;;12.45;92.05;100336.56;4971113;28;20035;-46
2021/05/23 00:50:31;;;;;;;2.22;0.70;;;13.00;99.90;;;12.48;91.40;100331.81;4971189;28;20031;-47
2021/05/23 00:53:00;;;;;;;2.90;0.70;;;13.00;99.90;;;12.49;91.18;100333.47;4970450;28;20031;-48
2021/05/23 00:55:27;;;;;;;3.53;1.00;;;13.00;99.90;;;12.52;91.30;100337.56;4971030;28;20038;-46
2021/05/23 00:57:52;;;;;;;3.15;0.68;;;13.00;99.90;;;12.54;91.10;100339.03;4970823;28;20047;-50
2021/05/23 01:00:39;;;;;;;5.03;0.80;;;13.10;99.90;;;12.54;91.44;100325.16;4970838;28;20057;-51
2021/05/23 01:03:28;;;;;;;3.90;0.50;;;13.10;99.90;;;12.52;91.23;100334.94;4969758;28;20057;-49
2021/05/23 01:06:05;;;;;;;2.45;0.75;;;13.00;99.90;;;12.52;91.03;100334.94;4970445;28;20039;-49
2021/05/23 01:08:34;;;;;;;1.35;0.73;;;13.10;99.90;;;12.54;90.81;100327.75;4971061;28;20034;-48
2021/05/23 01:11:28;;;;;;;1.20;0.60;;;13.10;99.90;;;12.54;91.28;100312.06;4969941;28;20043;-46
2021/05/23 01:13:57;;;;;;;2.47;0.80;;;13.10;99.90;;;12.53;91.21;100310.44;4969690;28;20070;-46
2021/05/23 01:16:31;;;;;;;3.42;0.55;;;13.10;99.90;;;12.56;91.05;100310.94;4970547;28;20402;-46
2021/05/23 01:19:32;;;;;;;2.90;0.57;;;13.10;99.90;;;12.59;91.11;100328.09;4946017;28;20420;-48
2021/05/23 01:22:46;;;;;;;2.53;0.40;;;13.10;99.90;;;12.61;91.29;100323.53;4961930;28;20466;-48
2021/05/23 01:25:19;;;;;;;7.43;0.70;;;13.10;99.90;;;12.59;90.76;100321.06;4937977;28;20047;-48
2021/05/23 01:27:50;;;;;;;5.60;1.13;;;13.10;99.90;;;12.48;91.41;100328.41;4970541;28;20047;-47
2021/05/23 01:30:23;;;;;;;5.35;1.00;;;13.10;99.90;;;12.50;91.61;100329.06;4962932;28;20482;-48
2021/05/23 01:32:54;;;;;;;4.18;0.82;;;13.10;99.90;;;12.61;90.92;100319.13;4970357;28;20382;-47
2021/05/23 01:35:33;;;;;;;3.00;0.80;;;13.10;99.90;;;12.64;91.11;100312.75;4970406;28;20125;-51
2021/05/23 01:38:00;;;;;;;2.78;0.50;;;13.20;99.90;;;12.62;91.54;100312.91;4969989;28;20066;-53
2021/05/23 01:40:31;;;;;;;5.85;0.80;;;13.20;99.90;;;12.63;91.55;100309.31;4970261;28;20039;-51
2021/05/23 01:42:59;;;;;;;4.78;0.85;;;13.20;99.90;;;12.59;91.90;100299.34;4969623;28;20050;-53
2021/05/23 01:45:25;;;;;;;5.22;0.50;;;13.10;99.90;;;12.66;91.74;100305.56;4949803;29;20035;-53
2021/05/23 01:47:52;;;;;;;4.03;0.68;;;13.20;99.90;;;12.70;91.48;100301.66;4949607;28;20043;-50
2021/05/23 01:50:18;;;;;;;3.53;0.77;;;13.20;99.90;;;12.72;91.71;100304.94;4937671;28;20070;-52
2021/05/23 01:52:54;;;;;;;3.55;0.60;;;13.20;99.90;;;12.74;91.94;100295.13;4970354;28;20526;-52
2021/05/23 01:55:21;;;;;;;7.80;0.90;;;13.30;99.90;;;12.74;91.79;100295.13;4969822;28;20425;-48
2021/05/23 01:57:47;;;;;;;3.80;0.55;;;13.30;99.90;;;12.79;91.92;100299.84;4970088;28;20049;-47
2021/05/23 02:00:18;;;;;;;7.38;1.20;;;13.30;99.90;;;12.83;91.51;100301.97;4969678;28;20041;-47
2021/05/23 02:02:44;;;;;;;6.28;0.63;;;13.30;99.90;;;12.86;91.47;100309.47;4969809;28;20035;-51
2021/05/23 02:05:11;;;;;;;1.67;0.57;;;13.40;99.90;;;12.87;91.40;100308.50;4962092;28;20121;-53
2021/05/23 02:07:38;;;;;;;11.27;1.02;;;13.40;99.90;;;12.84;91.91;100308.00;4947551;28;20165;-52
2021/05/23 02:10:08;;;;;;;3.78;0.77;;;13.40;99.90;;;12.81;92.30;100309.16;4949348;28;20046;-49
2021/05/23 02:12:34;;;;;;;2.33;0.80;;;13.40;99.90;;;12.82;92.61;100297.72;4969776;28;20044;-50
2021/05/23 02:15:06;;;;;;;3.30;0.50;;;13.40;99.90;;;12.82;92.52;100297.72;4969586;28;20038;-47
2021/05/23 02:17:37;;;;;;;2.55;0.50;;;13.40;99.90;;;12.82;92.30;100305.56;4969468;28;20034;-47
2021/05/23 02:20:10;;;;;;;4.38;0.80;;;13.40;99.90;;;12.77;92.54;100313.06;4969412;28;20073;-46
2021/05/23 02:22:45;;;;;;;2.15;0.40;;;13.30;99.90;;;12.69;93.25;100312.28;4963171;28;20475;-48
2021/05/23 02:25:15;;;;;;;1.17;0.50;;;13.30;99.90;;;12.61;93.51;100308.66;4969252;28;20474;-46
2021/05/23 02:27:44;;;;;;;4.18;0.70;;;13.20;99.90;;;12.67;92.70;100304.59;4969689;28;20043;-49
2021/05/23 02:30:18;;;;;;;4.28;0.60;;;13.20;99.90;;;12.66;92.03;100308.19;4969141;28;20031;-46
2021/05/23 02:32:45;;;;;;;4.22;0.43;;;13.20;99.90;;;12.65;92.04;100305.72;4969718;28;20485;-47
2021/05/23 02:35:14;;;;;;;3.08;0.75;;;13.20;99.90;;;12.66;92.26;100296.91;4968845;28;20127;-47
2021/05/23 02:37:41;;;;;;;3.10;0.45;;;13.20;99.90;;;12.69;92.08;100284.34;4969608;28;20041;-47
2021/05/23 02:42:37;;;;;;;1.73;0.38;;;13.20;99.90;;;12.80;91.44;100281.38;5243083;23;20526;-48
2021/05/23 02:45:10;;;;;;;4.72;0.52;;;13.30;99.90;;;12.84;91.47;100267.00;4949853;29;20138;-48
2021/05/23 02:47:37;;;;;;;8.43;0.60;;;13.30;99.90;;;12.88;91.42;100259.66;4950140;29;20394;-52
2021/05/23 02:50:08;;;;;;;5.03;0.47;;;13.40;99.90;;;12.90;91.38;100260.31;4932376;29;20035;-46
2021/05/23 02:52:35;;;;;;;4.95;0.80;;;13.40;99.90;;;12.88;91.90;100257.84;4949356;29;20039;-47
2021/05/23 02:55:01;;;;;;;4.95;0.73;;;13.40;99.90;;;12.92;92.00;100268.81;4949594;29;20031;-47
2021/05/23 02:57:27;;;;;;;3.10;1.05;;;13.50;99.90;;;12.90;92.13;100268.97;4949397;29;20051;-51
2021/05/23 02:59:53;;;;;;;3.05;1.05;;;13.40;99.90;;;12.89;92.35;100264.72;4949714;29;20082;-48
2021/05/23 03:02:19;;;;;;;7.82;1.35;;;13.40;99.90;;;12.88;92.20;100270.09;4949197;29;20043;-45
2021/05/23 03:04:45;;;;;;;9.00;1.42;;;13.40;99.90;;;12.90;92.78;100266.34;4949433;29;20039;-48
2021/05/23 03:07:11;;;;;;;3.95;1.60;;;13.40;99.90;;;12.92;92.94;100276.66;4949755;29;20043;-46
2021/05/23 03:09:37;;;;;;;8.70;1.63;;;13.40;99.90;;;12.93;92.97;100271.25;4949372;29;20418;-47
2021/05/23 03:12:03;;;;;;;5.85;1.25;;;13.40;99.90;;;12.92;93.05;100269.63;4949565;29;20038;-45
2021/05/23 03:14:29;;;;;;;4.10;1.52;;;13.50;99.90;;;12.94;93.59;100283.34;4949019;29;20039;-46
2021/05/23 03:16:55;;;;;;;8.50;1.20;;;13.50;99.90;;;12.99;93.41;100279.41;4949792;29;20507;-47
2021/05/23 03:19:21;;;;;;;5.40;1.58;;;13.50;99.90;;;13.03;93.08;100278.94;4948976;29;20035;-46
2021/05/23 03:21:47;;;;;;;7.75;1.80;;;13.50;99.90;;;13.09;93.05;100280.88;4949614;29;20118;-46
2021/05/23 03:24:13;;;;;;;10.13;2.10;;;13.60;99.90;;;13.14;92.98;100288.25;4949530;29;20035;-47
2021/05/23 03:26:39;;;;;;;12.65;1.90;;;13.60;99.90;;;13.16;93.24;100276.66;4949137;29;20035;-48
2021/05/23 03:29:05;;;;;;;6.22;1.20;;;13.70;99.90;;;13.17;93.24;100283.53;4949474;29;20035;-50
2021/05/23 03:31:31;;;;;;;7.63;1.60;;;13.70;99.90;;;13.22;93.41;100293.50;4948875;29;20031;-52
2021/05/23 03:33:57;;;;;;;3.83;1.40;;;13.80;99.90;;;13.22;93.55;100296.13;4949226;29;20055;-53
2021/05/23 03:36:23;;;;;;;3.65;0.80;;;13.80;99.90;;;13.25;93.32;100301.00;4948725;29;20073;-49
2021/05/23 03:38:48;;;;;;;14.00;1.35;;;13.70;99.90;;;13.27;92.96;100304.25;4949149;29;20050;-49
2021/05/23 03:41:15;;;;;;;3.67;0.90;;;13.80;99.90;;;13.26;93.14;100300.00;4949360;29;20491;-49
2021/05/23 03:43:42;;;;;;;9.82;1.02;;;13.80;99.90;;;13.27;92.82;100301.66;4948667;29;20138;-48
2021/05/23 03:46:08;;;;;;;6.53;0.73;;;13.80;99.90;;;13.28;92.44;100301.47;4950566;28;20036;-51
2021/05/23 03:48:34;;;;;;;3.20;0.90;;;13.80;99.90;;;13.26;92.71;100298.22;4952451;29;20062;-50
2021/05/23 03:51:00;;;;;;;3.97;1.15;;;13.80;99.90;;;13.26;92.75;100297.41;4952972;29;20074;-48
2021/05/23 03:53:26;;;;;;;4.82;0.95;;;13.80;99.90;;;13.28;92.86;100295.44;4952571;29;20027;-49
2021/05/23 03:55:52;;;;;;;8.00;0.82;;;13.80;99.90;;;13.29;92.61;100302.28;4952758;29;20476;-52
2021/05/23 03:58:19;;;;;;;2.63;0.65;;;13.80;99.90;;;13.27;92.53;100293.78;4952884;29;20167;-51
2021/05/23 04:00:45;;;;;;;2.53;0.50;;;13.80;99.90;;;13.25;92.31;100298.38;4952415;29;20118;-52
2021/05/23 04:03:11;;;;;;;10.25;1.40;;;13.80;99.90;;;13.23;92.35;100292.53;4952451;29;20138;-52
2021/05/23 04:05:37;;;;;;;3.08;0.40;;;13.70;99.90;;;13.21;92.45;100302.34;4952519;29;20118;-50
2021/05/23 04:08:04;;;;;;;4.35;0.52;;;13.80;99.90;;;13.22;92.04;100303.97;4952624;29;20555;-46
2021/05/23 04:10:36;;;;;;;3.70;0.63;;;13.80;99.90;;;13.24;92.30;100299.34;4952701;29;20031;-47
2021/05/23 04:13:04;;;;;;;4.47;0.60;;;13.80;99.90;;;13.27;92.10;100299.84;4952427;29;20097;-45
2021/05/23 04:15:31;;;;;;;6.65;0.70;;;13.70;99.90;;;13.30;91.91;100301.31;4952591;29;20455;-48
2021/05/23 04:17:58;;;;;;;6.53;0.98;;;13.80;99.90;;;13.29;91.94;100299.69;4952144;29;20119;-48
2021/05/23 04:20:25;;;;;;;8.82;1.00;;;13.80;99.90;;;13.31;92.19;100302.94;4952282;29;20023;-46
2021/05/23 04:22:53;;;;;;;5.10;0.70;;;13.80;99.90;;;13.34;92.32;100302.63;4952218;29;20039;-49
2021/05/23 04:25:20;;;;;;;4.45;0.82;;;13.80;99.90;;;13.39;92.42;100292.47;4952238;29;20514;-50
2021/05/23 04:27:49;;;;;;;4.57;1.08;;;13.90;99.90;;;13.45;92.42;100296.22;4952261;29;20051;-50
2021/05/23 04:30:18;;;;;;;8.20;1.67;;;13.90;99.90;;;13.52;92.64;100302.44;4951739;29;20471;-49
2021/05/23 04:32:44;;;;;;;4.95;1.40;;;14.00;99.90;;;13.59;92.71;100301.59;4952221;29;20055;-46
2021/05/23 04:35:12;;;;;;;4.05;2.35;;;14.10;99.90;;;13.65;92.84;100301.91;4934304;29;20046;-49
2021/05/23 04:37:38;;;;;;;8.60;2.35;;;14.10;99.90;;;13.68;92.84;100293.72;4951909;29;20053;-48
2021/05/23 04:40:07;;;;;;;8.82;2.08;;;14.20;99.90;;;13.70;93.04;100299.59;4951658;29;20035;-48
2021/05/23 04:42:33;;;;;;;4.88;2.67;;;14.20;99.90;;;13.75;93.08;100292.84;4951028;29;20057;-49
2021/05/23 04:44:59;;;;;;;4.80;2.42;;;14.30;99.90;;;13.77;93.28;100295.31;4952082;29;20451;-46
2021/05/23 04:47:27;;;;;;;5.00;2.30;;;14.30;99.90;;;13.75;93.48;100305.13;4951633;29;20035;-48
2021/05/23 04:49:53;;;;;;;5.10;1.88;;;14.30;99.90;;;13.74;93.69;100312.16;4952192;29;20039;-47
2021/05/23 04:52:19;;;;;;;4.28;1.77;;;14.30;99.90;;;13.77;93.63;100300.53;4952031;29;20101;-47
2021/05/23 04:54:45;;;;;;;8.38;2.63;;;14.30;99.90;;;13.81;93.62;100300.03;4951403;29;20101;-45
2021/05/23 04:57:11;;;;;;;12.40;1.98;;;14.30;99.90;;;13.83;93.61;100295.44;4950645;28;20042;-47
2021/05/23 04:59:37;;;;;;;7.97;1.38;;;14.40;99.90;;;13.87;93.43;100295.91;4951526;29;20124;-50
2021/05/23 05:02:03;;;;;;;8.85;1.30;;;14.40;99.90;;;13.89;92.59;100305.25;4951511;29;20039;-50
2021/05/23 05:04:30;;;;;;;7.50;0.93;;;14.40;99.90;;;13.86;92.65;100307.38;4951846;29;20431;-49
2021/05/23 05:06:56;;;;;;;2.67;0.90;;;14.40;99.90;;;13.87;92.36;100306.41;4951346;29;20486;-48
2021/05/23 05:09:22;;;;;;;5.03;1.05;;;14.40;99.90;;;13.99;91.71;100294.56;4951644;29;20066;-49
2021/05/23 05:11:48;;;;;;;4.97;0.80;;;14.50;99.90;;;14.16;90.96;100296.13;4951142;29;20043;-49
2021/05/23 05:14:15;;;;;;;3.72;0.80;;;14.60;99.90;;;14.13;90.55;100306.13;4951558;29;20043;-45
2021/05/23 05:16:41;;;;;;;11.40;0.90;;;14.60;99.90;;;14.10;90.50;100304.69;4951424;29;20053;-48
2021/05/23 05:19:10;;;;;;;4.93;1.27;;;14.60;99.90;;;14.03;90.76;100306.34;4950994;29;20511;-46
2021/05/23 05:21:36;;;;;;;5.43;0.75;;;14.60;99.90;;;14.00;91.06;100308.47;4951323;29;20085;-45
2021/05/23 05:24:03;;;;;;;4.95;0.98;;;14.50;99.90;;;13.95;91.51;100309.00;4950931;29;20125;-45
2021/05/23 05:26:29;;;;;;;9.52;1.40;;;14.50;99.90;;;14.03;91.67;100306.34;4951142;29;20035;-48
2021/05/23 05:28:56;;;;;;;8.02;1.38;;;14.60;99.90;;;14.31;91.30;100308.47;4951117;29;20058;-49
2021/05/23 05:31:22;;;;;;;7.80;0.75;;;14.80;99.90;;;14.55;90.43;100308.38;4950830;29;20039;-49
2021/05/23 05:33:48;;;;;;;7.75;2.50;;;15.00;99.90;;;14.62;90.33;100306.69;4951312;29;20434;-46
2021/05/23 05:36:14;;;;;;;13.52;2.42;;;15.10;99.90;;;14.65;90.30;100311.56;4950629;29;20031;-46
2021/05/23 05:38:40;;;;;;;6.75;1.30;;;15.20;99.90;;;14.57;90.55;100319.50;4950942;29;20380;-48
2021/05/23 05:41:06;;;;;;;3.45;0.70;;;15.20;99.90;;;14.52;91.04;100327.06;4950600;29;20046;-47
2021/05/23 05:43:32;;;;;;;4.53;0.90;;;15.10;99.90;;;14.44;90.91;100324.50;4950455;29;20074;-47
2021/05/23 05:45:58;;;;;;;3.33;0.70;;;15.10;99.90;;;14.33;91.15;100330.09;4950914;29;20050;-46
2021/05/23 05:48:24;;;;;;;3.33;0.65;;;15.00;99.90;;;14.23;91.27;100327.69;4950304;29;20039;-50
2021/05/23 05:50:50;;;;;;;6.75;1.30;;;14.90;99.90;;;14.22;91.16;100319.00;4950718;29;20066;-46
2021/05/23 05:53:16;;;;;;;2.60;0.80;;;14.80;99.90;;;14.29;91.15;100322.56;4950858;29;20039;-49
2021/05/23 05:55:42;;;;;;;8.15;0.80;;;14.90;99.90;;;14.39;90.94;100321.53;4950729;29;20090;-50
2021/05/23 05:58:08;;;;;;;6.50;1.00;;;14.90;99.90;;;14.41;90.86;100330.06;4950926;29;20031;-47
2021/05/23 06:00:34;;;;;;;6.47;0.90;;;14.90;99.90;;;14.47;90.48;100334.63;4950205;29;20441;-48
2021/05/23 06:03:01;;;;;;;10.82;1.67;;;15.00;99.90;;;14.46;90.74;100327.75;4950609;29;20035;-45
2021/05/23 06:05:27;;;;;;;7.18;0.80;;;15.00;99.90;;;14.43;90.97;100328.94;4950998;29;20035;-45
2021/05/23 06:07:53;;;;;;;11.13;0.90;;;15.00;99.90;;;14.39;91.25;100337.28;4950377;29;20198;-46
2021/05/23 06:10:19;;;;;;;7.35;1.17;;;15.00;99.90;;;14.40;91.35;100334.47;4950112;28;20519;-45
2021/05/23 06:12:45;;;;;;;8.55;1.85;;;15.00;99.90;;;14.46;91.37;100331.19;4950288;29;20035;-46
2021/05/23 06:15:13;;;;;;;7.68;1.83;;;15.00;99.90;;;14.40;91.43;100333.66;4950350;29;20117;-48
2021/05/23 06:17:39;;;;;;;7.65;1.42;;;15.00;99.90;;;14.29;91.78;100327.81;4932844;29;20488;-46
2021/05/23 06:20:06;;;;;;;8.55;1.00;;;14.90;99.90;;;14.17;92.30;100328.41;4949990;29;20304;-45
2021/05/23 06:22:32;;;;;;;9.40;1.23;;;14.80;99.90;;;14.04;92.68;100328.94;4950068;29;20566;-46
2021/05/23 06:24:58;;;;;;;5.20;1.25;;;14.70;99.90;;;14.06;92.41;100331.38;4949767;29;20032;-45
2021/05/23 06:27:24;;;;;;;9.93;1.08;;;14.60;99.90;;;14.01;92.25;100328.44;4950257;29;20505;-45
2021/05/23 06:29:50;;;;;;;7.90;0.88;;;14.60;99.90;;;14.02;92.07;100336.13;4949932;29;20491;-45
2021/05/23 06:32:16;;;;;;;5.78;0.80;;;14.60;99.90;;;14.07;91.70;100331.22;4949653;29;20050;-46
2021/05/23 06:34:42;;;;;;;10.63;0.95;;;14.60;99.90;;;14.16;91.25;100327.56;4950269;29;20032;-48
2021/05/23 06:37:08;;;;;;;8.38;1.48;;;14.60;99.90;;;14.26;90.88;100322.91;4949403;29;20067;-46
2021/05/23 06:39:34;;;;;;;8.65;1.38;;;14.70;99.90;;;14.40;90.54;100328.41;4950155;29;20038;-46
2021/05/23 06:42:00;;;;;;;3.20;1.05;;;14.80;99.90;;;14.56;90.07;100328.38;4949610;29;20507;-51
2021/05/23 06:44:26;;;;;;;8.85;1.15;;;15.00;99.90;;;14.67;89.60;100320.06;4949629;29;20032;-47
2021/05/23 06:46:52;;;;;;;8.98;2.03;;;15.10;99.90;;;14.71;89.92;100323.16;4949951;29;20035;-48
2021/05/23 06:49:18;;;;;;;10.82;1.90;;;15.20;99.90;;;14.72;90.24;100319.56;4949897;29;20038;-48
2021/05/23 06:51:44;;;;;;;8.32;1.65;;;15.20;99.90;;;14.75;90.36;100322.66;4942023;29;20035;-50
2021/05/23 06:54:10;;;;;;;8.40;1.40;;;15.20;99.90;;;14.77;90.38;100320.66;4949859;29;20039;-45
2021/05/23 06:56:36;;;;;;;12.00;1.88;;;15.30;99.90;;;14.76;90.77;100316.41;4949076;29;20487;-46
2021/05/23 06:59:03;;;;;;;7.28;1.67;;;15.30;99.90;;;14.67;91.06;100329.75;4949608;29;20035;-44
2021/05/23 07:01:31;;;;;;;10.20;1.33;;;15.30;99.90;;;14.62;91.46;100327.69;4949457;29;20345;-45
2021/05/23 07:03:58;;;;;;;5.65;1.50;;;15.20;99.90;;;14.61;91.57;100326.03;4942262;29;20066;-46
2021/05/23 07:06:24;;;;;;;6.80;1.52;;;15.20;99.90;;;14.70;91.62;100332.03;4949325;29;20027;-48
2021/05/23 07:08:50;;;;;;;13.13;1.65;;;15.20;99.90;;;14.85;91.36;100325.84;4949070;29;20059;-45
2021/05/23 07:11:16;;;;;;;10.82;1.33;;;15.30;99.90;;;15.04;90.54;100331.63;4949595;29;20047;-46
2021/05/23 07:13:42;;;;;;;7.95;1.73;;;15.50;99.90;;;15.27;90.13;100330.56;4949250;29;20043;-47
2021/05/23 07:16:08;;;;;;;7.68;1.85;;;15.70;99.90;;;15.48;89.44;100319.41;4941953;29;20058;-44
2021/05/23 07:18:34;;;;;;;11.05;2.25;;;15.90;99.90;;;15.64;89.37;100307.09;4949290;29;20043;-48
2021/05/23 07:21:00;;;;;;;9.00;2.47;;;16.10;99.90;;;15.88;89.39;100309.47;4948394;29;20123;-50
2021/05/23 07:23:28;;;;;;;15.80;3.42;;;16.30;99.90;;;16.11;88.93;100315.41;4949479;29;20031;-51
2021/05/23 07:25:55;;;;;;;11.18;2.13;;;16.50;99.90;;;16.34;88.33;100310.00;4931680;29;20112;-49
2021/05/23 07:28:21;;;;;;;11.57;3.00;;;16.70;99.90;;;16.60;87.65;100315.53;4949202;29;20514;-48
2021/05/23 07:30:48;;;;;;;14.23;3.25;;;17.00;99.90;;;16.73;87.36;100308.81;4931999;29;20603;-50
2021/05/23 07:33:15;;;;;;;18.00;3.08;;;17.20;99.90;;;16.68;87.78;100322.53;4948729;29;20050;-51
2021/05/23 07:35:42;;;;;;;15.77;3.25;;;17.30;99.90;;;16.77;87.70;100320.59;4949129;29;20032;-45
2021/05/23 07:38:08;;;;;;;22.45;3.67;;;17.30;99.90;;;16.87;87.52;100319.28;4948705;29;20562;-44
2021/05/23 07:40:35;;;;;;;15.60;2.72;;;17.40;99.90;;;16.89;87.57;100304.09;4949247;29;20088;-46
2021/05/23 07:43:03;;;;;;;24.48;3.45;;;17.40;99.90;;;16.90;87.33;100313.63;4948792;29;20055;-50
2021/05/23 07:45:32;;;;;;;15.77;2.42;;;17.50;99.90;;;16.91;87.42;100310.00;4941237;29;20027;-49
2021/05/23 07:47:58;;;;;;;17.73;2.75;;;17.50;99.90;;;16.95;87.48;100317.53;4949034;29;20046;-46
2021/05/23 07:50:25;;;;;;;19.58;3.03;;;17.50;99.90;;;17.07;86.87;100313.34;4948876;29;20110;-47
2021/05/23 07:52:51;;;;;;;11.98;2.15;;;17.60;99.90;;;17.18;86.60;100320.72;4949041;29;20039;-45
2021/05/23 07:55:18;;;;;;;11.52;2.92;;;17.70;99.90;;;17.21;86.33;100328.25;4948580;29;20118;-45
2021/05/23 07:57:45;;;;;;;17.75;3.03;;;17.70;99.90;;;17.21;86.43;100339.59;4948636;29;20399;-45
2021/05/23 08:00:13;;;;;;;13.85;2.92;;;17.80;99.90;;;17.23;86.43;100342.84;4948441;29;20120;-47
2021/05/23 08:02:39;;;;;;;13.80;3.00;;;17.80;99.90;;;17.25;86.17;100354.00;4949225;29;20063;-47
2021/05/23 08:05:06;;;;;;;13.82;2.60;;;17.70;99.90;;;17.28;85.79;100346.72;4949090;29;20075;-50
2021/05/23 08:07:32;;;;;;;17.23;2.47;;;17.80;99.90;;;17.37;85.51;100353.50;4948917;29;20407;-47
2021/05/23 08:09:58;;;;;;;10.52;2.38;;;17.90;99.90;;;17.38;85.33;100353.31;4948824;29;20066;-48
2021/05/23 08:12:25;;;;;;;19.35;3.72;;;17.90;99.90;;;17.43;84.97;100358.81;4948121;29;20046;-49
2021/05/23 08:14:51;;;;;;;11.18;2.42;;;17.90;99.90;;;17.50;84.64;100364.91;4948976;29;20035;-49
2021/05/23 08:17:17;;;;;;;16.52;2.20;;;18.00;99.90;;;17.61;84.02;100360.13;4948531;29;20038;-49
2021/05/23 08:19:43;;;;;;;14.52;2.80;;;18.10;99.90;;;17.66;83.90;100369.13;4949110;29;20031;-52
2021/05/23 08:22:09;;;;;;;14.35;3.72;;;18.20;99.90;;;17.84;83.30;100358.91;4949453;29;20418;-48
2021/05/23 08:24:36;;;;;;;16.05;2.55;;;18.30;99.90;;;18.05;82.68;100368.53;4947966;28;20039;-49
2021/05/23 08:27:02;;;;;;;28.00;2.55;;;18.50;99.90;;;18.19;81.61;100364.94;4949596;29;20031;-53
2021/05/23 08:29:30;;;;;;;19.02;2.67;;;18.60;99.90;;;18.33;81.18;100362.38;4949550;29;20179;-48
2021/05/23 08:31:58;;;;;;;12.55;2.55;;;18.70;99.90;;;18.57;80.25;100380.28;4950023;28;20059;-52
2021/05/23 08:34:25;;;;;;;10.68;2.05;;;18.90;99.90;;;18.66;79.25;100373.03;4951710;29;20113;-51
2021/05/23 08:36:51;;;;;;;19.55;3.03;;;19.10;99.90;;;18.72;79.09;100380.16;4951734;29;20039;-51
2021/05/23 08:39:17;;;;;;;9.40;2.45;;;19.20;99.90;;;18.79;78.90;100389.72;4952026;29;20039;-50
2021/05/23 08:41:52;;;;;;;12.80;2.90;;;19.30;99.90;;;18.97;77.77;100380.41;4951300;29;20031;-50
2021/05/23 08:44:20;;;;;;;;;;;19.40;99.90;;;18.94;76.64;100380.81;4952275;29;20443;-50
2021/05/23 08:46:49;;;;;;;17.88;2.25;;;19.50;99.90;;;18.69;78.40;100376.09;4934556;29;20453;-51
2021/05/23 08:49:21;;;;;;;16.35;2.42;;;19.40;99.90;;;18.68;77.78;100379.75;4951921;29;20031;-49
2021/05/23 08:51:49;;;;;;;13.60;2.33;;;19.20;99.90;;;18.81;77.40;100377.16;4951559;29;20511;-48
2021/05/23 08:54:16;;;;;;;14.73;2.17;;;19.20;99.90;;;19.08;76.73;100374.53;4951667;29;20078;-49
2021/05/23 08:56:44;;;;;;;16.95;2.50;;;19.50;99.90;;;19.01;76.37;100382.44;4951227;29;20047;-51
2021/05/23 08:59:11;;;;;;;12.13;2.45;;;19.60;99.90;;;18.87;76.86;100383.47;4951545;29;20370;-49
2021/05/23 09:01:39;;;;;;;10.40;2.05;;;19.50;99.90;;;18.86;76.93;100395.84;4951989;29;20501;-49
2021/05/23 09:04:08;;;;;;;12.90;2.03;;;19.50;99.90;;;18.99;76.76;100399.50;4943013;29;20035;-50
2021/05/23 09:06:37;;;;;;;21.60;4.20;;;19.60;99.90;;;18.97;76.53;100399.69;4951589;29;20450;-48
2021/05/23 09:09:10;;;;;;;14.07;2.70;;;19.50;99.90;;;19.10;76.09;100398.91;4951158;29;20043;-50
2021/05/23 09:11:39;;;;;;;17.35;2.03;;;19.60;99.90;;;18.93;76.91;100398.47;4951484;29;20122;-51
2021/05/23 09:14:05;;;;;;;12.95;2.42;;;19.60;99.90;;;18.87;77.24;100404.56;4951051;29;20074;-49
2021/05/23 09:16:40;;;;;;;14.52;2.83;;;19.50;99.90;;;18.97;77.08;100406.78;4951273;29;20488;-48
2021/05/23 09:19:07;;;;;;;20.85;3.30;;;19.50;99.90;;;19.27;76.19;100404.63;4951154;29;20035;-47
2021/05/23 09:21:37;;;;;;;13.23;2.72;;;19.60;99.90;;;19.47;75.88;100406.22;4949853;29;20530;-47
2021/05/23 09:24:09;;;;;;;14.27;2.53;;;19.90;99.90;;;19.40;75.96;100407.25;4950757;29;20039;-48
2021/05/23 09:26:45;;;;;;;19.48;3.10;;;19.90;99.90;;;19.86;74.16;100404.56;4951315;29;20130;-49
2021/05/23 09:29:16;;;;;;;15.88;2.75;;;20.20;99.90;;;20.13;73.50;100400.88;4950789;29;20035;-47
2021/05/23 09:31:53;;;;;;;14.25;2.95;;;20.50;99.90;;;20.20;73.03;100409.59;4951239;29;20050;-48
2021/05/23 09:34:28;;;;;;;18.20;2.97;;;20.70;99.90;;;20.03;72.75;100419.00;4950747;29;20058;-50
2021/05/23 09:36:54;;;;;;;17.67;2.75;;;20.70;99.90;;;19.62;74.19;100408.69;4951112;29;20043;-47
2021/05/23 09:39:20;;;;;;;14.93;3.30;;;20.30;99.90;;;19.99;73.05;100423.06;4950566;29;20106;-50
2021/05/23 09:41:48;;;;;;;14.15;3.85;;;20.40;99.90;;;20.81;70.54;100409.13;4950926;29;20644;-50
2021/05/23 09:44:25;;;;;;;19.98;2.55;;;20.80;99.90;;;22.16;66.32;100418.22;4949801;28;20032;-51
2021/05/23 09:47:01;;;;;;;17.50;2.75;;;22.00;99.90;;;22.60;64.88;100416.25;4933980;29;20415;-47
2021/05/23 09:49:43;;;;;;;20.10;2.78;;;22.90;99.90;;;23.11;62.88;100409.66;4950486;29;20051;-50
2021/05/23 09:52:17;;;;;;;15.13;2.65;;;23.40;99.90;;;24.27;60.64;100424.81;4950505;29;20050;-51
2021/05/23 09:54:48;;;;;;;8.45;2.22;;;24.30;99.90;;;24.56;59.12;100412.34;4950821;29;20042;-52
2021/05/23 09:57:18;;;;;;;15.25;2.28;;;25.00;99.90;;;24.95;58.27;100418.66;4947935;28;20061;-50
2021/05/23 09:59:45;;;;;;;13.25;2.72;;;25.20;99.50;;;24.65;59.09;100431.41;4947685;28;20735;-49
2021/05/23 10:02:13;;;;;;;13.32;2.17;;;25.40;98.20;;;23.73;61.44;100440.13;4947719;28;20512;-48
2021/05/23 10:04:41;;;;;;;17.98;2.17;;;24.90;98.70;;;23.37;62.39;100425.16;4948630;28;20125;-50
2021/05/23 10:07:12;;;;;;;17.00;2.13;;;24.30;99.90;;;23.71;60.92;100434.22;4950763;29;20178;-51
2021/05/23 10:09:40;;;;;;;13.55;2.05;;;24.30;99.90;;;24.57;59.01;100431.81;4950257;29;20039;-50
2021/05/23 10:12:11;;;;;;;9.77;1.38;;;24.90;99.50;;;23.83;60.83;100426.25;4950993;29;20062;-49
2021/05/23 10:14:39;;;;;;;19.75;2.33;;;24.70;98.60;;;23.43;61.40;100431.41;4949949;29;20134;-51
2021/05/23 10:17:07;;;;;;;11.07;1.65;;;24.30;98.60;;;23.33;61.00;100424.00;4950086;29;20037;-51